Aérodrome :
LOGIN :

S'inscrire | Disclaimer

   EN    FR    IT 

 










Légende :    VFR   VFR Marginal   IFR   IFR Intensif   IFR Très Intensif
Visi : 
Plafond : 
>= 8 km
>= 3000ft
5 à 8 km
1000 à 3000 ft
1500m à 5 km
500 à 1000 ft
800 à 1500m
200 à 500 ft
< 800m
< 200 ft
Symboles :   Orages  Brouillard  Fortes neiges  Fortes précipitations  Vent > 20 kt
SIGMETs :   Divers  Orages  Givrage  Turbulence  Onde Orograph.  Cendres Volcan.







- Altitude de l'aérodrome : 1470 ft
- Code IATA : KLU


LOWK - Klagenfurt

DERNIER METAR :
  • 181820Z VRB01KT 9999 FEW045 M03/M05 Q1025 R10L/15//95 NOSIG

METARs EXPIRÉS :
  • 181750Z VRB01KT 9999 FEW045 SCT080 M03/M04 Q1025 R10L/15//95 NOSIG
  • 181720Z 04002KT 9999 FEW045 SCT080 M02/M04 Q1024 R10L/15//95 NOSIG
  • 181650Z 02002KT 9999 FEW045 SCT080 M02/M04 Q1024 R10L/15//95 NOSIG
  • 181620Z VRB02KT 9999 FEW045 SCT085 M03/M05 Q1024 R10L/15//95 NOSIG
  • 181550Z VRB01KT 9999 FEW045 SCT090 M01/M04 Q1023 R10L/15//95 NOSIG

TAF TAF LOWK
Valide du 18 à 18h jusqu'au 19 à 18h UTC


181715Z 1818/1918 VRB02KT 9999 FEW040 SCT080 TX01/1915Z TNM09/1906Z
BECMG 1818/1822 BKN012
PROB30
TEMPO 1823/1907 0300 FZFG VV002
BECMG 1907/1910 4000 BR SCT007
BECMG 1910/1912 9999 FEW040
Pas de NOTAMs connus pour ce terrain.



MET'MAP, la Météo Aéronautique d'un coup d'oeil ! - Copyright ORBIFLY Décembre 2007 - Disclaimer

ORBIFLY MET'MAP TEAM :

Programmation & Développement : Alexandra Zaïnal
Conception & Développement : Baudouin d'Aumeries
Co-Programmation & Développement : Marc-Olivier Méhu
Soutien technique & logistique : Manuel Goepfert

Contact : metmap@orbifly.com




SOURCES & CREDITS :

   NOAA